Terminal Aerodrome Forecast
Issued by NWS Grand Forks, ND

Home | Current Version | Previous Version | Graphics & Text | Print | Product List | Glossary On
Versions: 1 2 3 4 5 6 7 8 9 10 11 12 13 14 15 16 17
000
FTUS43 KFGF 220300 AAB
TAFGFK
TAF AMD
KGFK 220322Z 2203/2224 35015KT P6SM BKN040
      TEMPO 2203/2205 VRB25G35KT 2SM TSRA BKN040CB
     FM220600 34012KT P6SM BKN080
     FM221500 35012KT P6SM SKC=

USA.gov is the U.S. government's official web portal to all federal, state and local government web resources and services.